createdAt,value
2023-12-31T00:02:24.005Z,12.80
2023-12-31T00:04:50.552Z,12.70
2023-12-31T00:07:17.119Z,12.60
2023-12-31T00:09:44.544Z,12.80
2023-12-31T00:12:11.057Z,12.70
2023-12-31T00:14:37.575Z,12.70
2023-12-31T00:17:04.107Z,12.80
2023-12-31T00:19:30.699Z,12.70
2023-12-31T00:21:57.260Z,12.80
2023-12-31T00:24:23.777Z,12.90
2023-12-31T00:26:50.316Z,12.90
2023-12-31T00:29:16.838Z,12.80
2023-12-31T00:31:43.444Z,12.90
2023-12-31T00:34:10.008Z,12.80
2023-12-31T00:36:36.557Z,12.70
2023-12-31T00:39:03.069Z,12.60
2023-12-31T00:41:29.643Z,12.50
2023-12-31T00:43:56.144Z,12.50
2023-12-31T00:46:22.696Z,12.60
2023-12-31T00:48:49.239Z,12.40
2023-12-31T00:51:15.768Z,12.50
2023-12-31T00:53:42.274Z,12.60
2023-12-31T00:56:08.804Z,12.60
2023-12-31T00:58:35.366Z,12.70
2023-12-31T01:01:01.950Z,12.70
2023-12-31T01:03:28.525Z,12.60
2023-12-31T01:05:55.077Z,12.60
2023-12-31T01:08:21.585Z,12.60
2023-12-31T01:10:48.191Z,12.70
2023-12-31T01:13:14.757Z,12.80
2023-12-31T01:15:41.299Z,12.70
2023-12-31T01:18:07.926Z,12.70
2023-12-31T01:20:34.517Z,12.70
2023-12-31T01:23:01.219Z,12.60
2023-12-31T01:25:27.929Z,12.80
2023-12-31T01:27:54.463Z,12.70
2023-12-31T01:30:21.040Z,12.70
2023-12-31T01:32:47.624Z,12.70
2023-12-31T01:35:14.247Z,12.60
2023-12-31T01:37:40.849Z,12.60
2023-12-31T01:40:07.510Z,12.70
2023-12-31T01:42:34.114Z,12.70
2023-12-31T01:45:01.738Z,12.80
2023-12-31T01:47:28.286Z,12.70
2023-12-31T01:49:54.890Z,12.70
2023-12-31T01:52:21.463Z,12.80
2023-12-31T01:54:47.988Z,12.80
2023-12-31T01:57:14.873Z,12.60
2023-12-31T01:59:41.395Z,12.60
2023-12-31T02:02:07.894Z,12.70
2023-12-31T02:04:34.588Z,12.80
2023-12-31T02:07:01.280Z,12.40
2023-12-31T02:09:27.802Z,12.60
2023-12-31T02:11:54.339Z,12.60
2023-12-31T02:14:20.846Z,12.60
2023-12-31T02:16:47.440Z,12.70
2023-12-31T02:19:14.531Z,12.60
2023-12-31T02:21:41.061Z,12.60
2023-12-31T02:24:07.627Z,12.60
2023-12-31T02:26:34.133Z,12.50
2023-12-31T02:29:00.636Z,12.60
2023-12-31T02:31:27.178Z,12.70
2023-12-31T02:33:53.812Z,12.70
2023-12-31T02:36:20.524Z,12.80
2023-12-31T02:38:47.061Z,12.70
2023-12-31T02:41:13.597Z,12.60
2023-12-31T02:43:40.160Z,12.60
2023-12-31T02:46:06.686Z,12.40
2023-12-31T02:48:33.352Z,12.50
2023-12-31T02:50:59.940Z,12.60
2023-12-31T02:53:26.463Z,12.50
2023-12-31T02:55:53.023Z,12.40
2023-12-31T02:58:19.559Z,12.60
2023-12-31T03:00:46.117Z,12.50
2023-12-31T03:03:12.658Z,12.50
2023-12-31T03:05:39.253Z,12.60
2023-12-31T03:08:05.810Z,12.60
2023-12-31T03:10:32.409Z,12.70
2023-12-31T03:12:59.029Z,12.80
2023-12-31T03:15:25.585Z,12.80
2023-12-31T03:17:52.202Z,12.80
2023-12-31T03:20:18.950Z,12.80
2023-12-31T03:22:45.509Z,12.70
2023-12-31T03:25:12.157Z,12.80
2023-12-31T03:27:38.711Z,12.80
2023-12-31T03:30:05.327Z,12.70
2023-12-31T03:32:31.919Z,12.60
2023-12-31T03:34:58.497Z,12.70
2023-12-31T03:37:25.067Z,12.60
2023-12-31T03:39:51.630Z,12.70
2023-12-31T03:42:18.151Z,12.60
2023-12-31T03:44:44.679Z,12.70
2023-12-31T03:47:11.206Z,12.70
2023-12-31T03:49:37.835Z,12.60
2023-12-31T03:52:04.414Z,12.70
2023-12-31T03:54:30.943Z,12.70
2023-12-31T03:56:57.440Z,12.80
2023-12-31T03:59:23.978Z,12.70
2023-12-31T04:01:50.503Z,12.80
2023-12-31T04:04:17.337Z,12.80
2023-12-31T04:06:43.921Z,12.70
2023-12-31T04:09:10.447Z,12.70
2023-12-31T04:11:36.948Z,13.00
2023-12-31T04:14:03.495Z,12.80
2023-12-31T04:16:30.023Z,12.80
2023-12-31T04:18:56.630Z,12.80
2023-12-31T04:21:23.151Z,12.80
2023-12-31T04:23:49.684Z,12.90
2023-12-31T04:26:16.192Z,12.80
2023-12-31T04:28:42.757Z,12.80
2023-12-31T04:31:09.294Z,12.90
2023-12-31T04:33:35.853Z,12.80
2023-12-31T04:36:02.378Z,12.70
2023-12-31T04:38:28.897Z,12.80
2023-12-31T04:40:55.439Z,12.90
2023-12-31T04:43:21.985Z,12.90
2023-12-31T04:45:48.515Z,12.80
2023-12-31T04:48:15.473Z,12.90
2023-12-31T04:50:42.050Z,12.90
2023-12-31T04:53:08.590Z,12.90
2023-12-31T04:55:35.150Z,12.80
2023-12-31T04:58:01.710Z,12.70
2023-12-31T05:00:28.255Z,12.80
2023-12-31T05:02:54.829Z,12.80
2023-12-31T05:05:21.363Z,12.80
2023-12-31T05:07:47.970Z,12.80
2023-12-31T05:10:14.590Z,12.80
2023-12-31T05:12:41.114Z,12.70
2023-12-31T05:15:07.612Z,12.60
2023-12-31T05:17:34.267Z,12.60
2023-12-31T05:20:00.907Z,12.70
2023-12-31T05:22:27.459Z,12.70
2023-12-31T05:24:54.033Z,12.60
2023-12-31T05:27:20.552Z,12.70
2023-12-31T05:29:47.109Z,12.80
2023-12-31T05:32:14.192Z,12.90
2023-12-31T05:34:40.762Z,12.80
2023-12-31T05:37:07.304Z,12.80
2023-12-31T05:39:33.831Z,13.00
2023-12-31T05:42:00.345Z,13.10
2023-12-31T05:44:26.905Z,13.10
2023-12-31T05:46:53.486Z,13.10
2023-12-31T05:49:20.231Z,13.10
2023-12-31T05:51:46.885Z,13.20
2023-12-31T05:54:14.099Z,13.20
2023-12-31T05:56:40.611Z,13.20
2023-12-31T05:59:07.149Z,13.20
2023-12-31T06:01:33.700Z,13.30
2023-12-31T06:04:00.284Z,13.30
2023-12-31T06:06:26.790Z,13.40
2023-12-31T06:08:53.311Z,13.40
2023-12-31T06:11:19.820Z,13.60
2023-12-31T06:13:46.476Z,13.70
2023-12-31T06:16:13.064Z,13.70
2023-12-31T06:18:39.599Z,13.70
2023-12-31T06:21:06.136Z,13.80
2023-12-31T06:23:32.711Z,13.80
2023-12-31T06:25:59.228Z,13.80
2023-12-31T06:28:25.804Z,13.90
2023-12-31T06:30:52.397Z,14.00
2023-12-31T06:33:19.094Z,13.90
2023-12-31T06:35:45.661Z,14.00
2023-12-31T06:38:12.194Z,14.00
2023-12-31T06:40:38.717Z,14.20
2023-12-31T06:43:05.531Z,14.30
2023-12-31T06:45:32.251Z,14.30
2023-12-31T06:47:58.911Z,14.20
2023-12-31T06:50:25.556Z,14.00
2023-12-31T06:52:52.246Z,14.00
2023-12-31T06:55:18.855Z,14.20
2023-12-31T06:57:45.422Z,14.20
2023-12-31T07:00:11.932Z,14.10
2023-12-31T07:02:38.491Z,14.20
2023-12-31T07:05:05.192Z,14.20
2023-12-31T07:07:31.815Z,14.20
2023-12-31T07:09:58.606Z,14.20
2023-12-31T07:12:25.186Z,14.20
2023-12-31T07:14:51.703Z,14.40
2023-12-31T07:17:18.307Z,14.40
2023-12-31T07:19:44.899Z,14.40
2023-12-31T07:22:11.462Z,14.60
2023-12-31T07:24:37.960Z,14.50
2023-12-31T07:27:04.499Z,14.60
2023-12-31T07:29:31.992Z,14.40
2023-12-31T07:31:58.659Z,14.70
2023-12-31T07:34:25.246Z,14.50
2023-12-31T07:36:51.832Z,14.50
2023-12-31T07:39:18.353Z,14.60
2023-12-31T07:41:44.894Z,14.50
2023-12-31T07:44:11.396Z,14.50
2023-12-31T07:46:38.010Z,14.60
2023-12-31T07:49:04.594Z,14.60
2023-12-31T07:51:31.250Z,14.70
2023-12-31T07:53:57.765Z,14.80
2023-12-31T07:56:24.294Z,14.60
2023-12-31T07:58:50.826Z,14.60
2023-12-31T08:01:17.525Z,14.80
2023-12-31T08:03:44.119Z,14.60
2023-12-31T08:06:10.736Z,14.80
2023-12-31T08:08:37.319Z,14.80
2023-12-31T08:11:04.427Z,14.80
2023-12-31T08:13:31.452Z,14.80
2023-12-31T08:15:58.085Z,14.90
2023-12-31T08:18:24.746Z,15.00
2023-12-31T08:20:51.400Z,14.90
2023-12-31T08:23:17.923Z,14.80
2023-12-31T08:25:44.498Z,14.80
2023-12-31T08:28:11.038Z,14.90
2023-12-31T08:30:37.633Z,14.90
2023-12-31T08:33:04.524Z,14.90
2023-12-31T08:35:31.411Z,14.70
2023-12-31T08:37:58.012Z,14.80
2023-12-31T08:40:24.571Z,14.80
2023-12-31T08:42:51.102Z,15.00
2023-12-31T08:45:17.631Z,15.00
2023-12-31T08:47:44.173Z,15.10
2023-12-31T08:50:11.314Z,15.00
2023-12-31T08:52:38.103Z,15.00
2023-12-31T08:55:04.648Z,15.00
2023-12-31T08:57:31.152Z,14.90
2023-12-31T08:59:57.680Z,14.90
2023-12-31T09:02:24.218Z,14.80
2023-12-31T09:04:50.841Z,14.90
2023-12-31T09:07:17.428Z,15.00
2023-12-31T09:09:43.976Z,15.10
2023-12-31T09:12:10.479Z,15.20
2023-12-31T09:14:37.010Z,15.20
2023-12-31T09:17:03.534Z,15.20
2023-12-31T09:19:30.097Z,15.30
2023-12-31T09:21:56.629Z,15.20
2023-12-31T09:24:23.192Z,15.20
2023-12-31T09:26:49.737Z,15.10
2023-12-31T09:29:16.260Z,15.20
2023-12-31T09:31:42.847Z,15.10
2023-12-31T09:34:09.387Z,15.10
2023-12-31T09:36:35.931Z,15.10
2023-12-31T09:39:02.489Z,15.00
2023-12-31T09:41:28.991Z,15.10
2023-12-31T09:43:55.563Z,15.00
2023-12-31T09:46:22.198Z,15.00
2023-12-31T09:48:48.819Z,15.00
2023-12-31T09:51:15.374Z,14.90
2023-12-31T09:53:41.901Z,14.90
2023-12-31T09:56:08.406Z,14.90
2023-12-31T09:58:34.991Z,14.90
2023-12-31T10:01:01.602Z,14.90
2023-12-31T10:03:28.243Z,14.70
2023-12-31T10:05:54.877Z,14.80
2023-12-31T10:08:21.456Z,14.80
2023-12-31T10:10:48.043Z,14.70
2023-12-31T10:13:14.590Z,14.80
2023-12-31T10:15:41.132Z,14.80
2023-12-31T10:18:08.231Z,14.70
2023-12-31T10:20:34.932Z,14.70
2023-12-31T10:23:01.714Z,14.70
2023-12-31T10:25:28.498Z,14.70
2023-12-31T10:27:55.072Z,14.70
2023-12-31T10:30:21.715Z,14.70
2023-12-31T10:32:48.385Z,14.60
2023-12-31T10:35:15.364Z,14.70
2023-12-31T10:37:42.004Z,14.60
2023-12-31T10:40:08.626Z,14.70
2023-12-31T10:42:35.152Z,14.60
2023-12-31T10:45:01.678Z,14.60
2023-12-31T10:47:28.281Z,14.60
2023-12-31T10:49:57.187Z,14.60
2023-12-31T10:52:25.204Z,14.60
2023-12-31T10:54:51.719Z,14.60
2023-12-31T10:57:18.352Z,14.50
2023-12-31T10:59:44.936Z,14.50
2023-12-31T11:02:11.473Z,14.50
2023-12-31T11:04:38.012Z,14.50
2023-12-31T11:07:04.591Z,14.50
2023-12-31T11:09:31.114Z,14.60
2023-12-31T11:11:57.652Z,14.50
2023-12-31T11:14:24.197Z,14.00
2023-12-31T11:16:50.721Z,13.70
2023-12-31T11:19:17.388Z,13.90
2023-12-31T11:21:43.948Z,14.10
2023-12-31T11:24:10.458Z,14.20
2023-12-31T11:26:36.985Z,14.30
2023-12-31T11:29:03.548Z,14.30
2023-12-31T11:31:30.130Z,13.80
2023-12-31T11:33:56.710Z,13.70
2023-12-31T11:36:23.270Z,13.80
2023-12-31T11:38:49.779Z,13.70
2023-12-31T11:41:16.316Z,13.80
2023-12-31T11:43:42.856Z,13.80
2023-12-31T11:46:09.407Z,13.90
2023-12-31T11:48:36.024Z,14.00
2023-12-31T11:51:02.766Z,13.80
2023-12-31T11:53:29.404Z,13.60
2023-12-31T11:55:56.262Z,13.50
2023-12-31T11:58:22.981Z,13.40
2023-12-31T12:00:49.606Z,13.30
2023-12-31T12:03:16.154Z,13.30
2023-12-31T12:05:42.846Z,13.30
2023-12-31T12:08:09.391Z,13.30
2023-12-31T12:10:35.959Z,13.20
2023-12-31T12:13:02.752Z,13.40
2023-12-31T12:15:29.533Z,13.40
2023-12-31T12:17:56.132Z,13.30
2023-12-31T12:20:22.708Z,13.20
2023-12-31T12:22:49.301Z,13.30
2023-12-31T12:25:15.867Z,13.40
2023-12-31T12:27:42.385Z,13.20
2023-12-31T12:30:09.064Z,13.20
2023-12-31T12:32:35.672Z,13.00
2023-12-31T12:35:02.350Z,13.10
2023-12-31T12:37:28.977Z,13.30
2023-12-31T12:39:55.526Z,13.10
2023-12-31T12:42:22.042Z,13.10
2023-12-31T12:44:48.601Z,12.90
2023-12-31T12:47:15.142Z,13.10
2023-12-31T12:49:41.717Z,13.10
2023-12-31T12:52:08.242Z,13.10
2023-12-31T12:54:34.771Z,13.00
2023-12-31T12:57:01.278Z,13.10
2023-12-31T12:59:27.816Z,12.90
2023-12-31T13:01:54.357Z,13.00
2023-12-31T13:04:20.932Z,13.30
2023-12-31T13:06:47.456Z,13.70
2023-12-31T13:09:13.989Z,13.40
2023-12-31T13:11:40.502Z,13.30
2023-12-31T13:14:07.023Z,13.30
2023-12-31T13:19:03.000Z,13.30
2023-12-31T13:21:29.608Z,13.50
2023-12-31T13:23:56.141Z,13.20
2023-12-31T13:26:22.635Z,13.30
2023-12-31T13:28:49.212Z,13.10
2023-12-31T13:31:15.744Z,13.00
2023-12-31T13:33:42.322Z,13.00
2023-12-31T13:36:08.857Z,13.00
2023-12-31T13:38:35.389Z,13.10
2023-12-31T13:41:01.917Z,13.20
2023-12-31T13:43:28.525Z,13.10
2023-12-31T13:45:55.080Z,13.10
2023-12-31T13:48:21.708Z,13.00
2023-12-31T13:50:48.257Z,12.80
2023-12-31T13:53:15.108Z,12.70
2023-12-31T13:55:41.918Z,12.70
2023-12-31T13:58:08.481Z,12.60
2023-12-31T14:00:35.075Z,12.50
2023-12-31T14:03:06.397Z,12.70
2023-12-31T14:05:34.674Z,12.70
2023-12-31T14:08:01.442Z,12.60
2023-12-31T14:10:28.103Z,12.70
2023-12-31T14:12:54.672Z,12.70
2023-12-31T14:15:21.200Z,12.70
2023-12-31T14:17:47.813Z,12.50
2023-12-31T14:20:14.433Z,12.50
2023-12-31T14:22:41.066Z,12.40
2023-12-31T14:25:07.632Z,12.50
2023-12-31T14:27:34.147Z,12.60
2023-12-31T14:30:00.652Z,12.60
2023-12-31T14:32:27.260Z,12.60
2023-12-31T14:34:53.845Z,12.70
2023-12-31T14:37:20.416Z,12.70
2023-12-31T14:39:46.942Z,12.70
2023-12-31T14:42:13.446Z,12.90
2023-12-31T14:44:39.988Z,12.90
2023-12-31T14:47:06.538Z,12.70
2023-12-31T14:49:33.177Z,12.70
2023-12-31T14:51:59.749Z,12.50
2023-12-31T14:54:26.273Z,12.60
2023-12-31T14:56:52.777Z,12.80
2023-12-31T14:59:19.327Z,13.00
2023-12-31T15:01:45.879Z,12.80
2023-12-31T15:04:12.447Z,12.70
2023-12-31T15:06:39.045Z,12.80
2023-12-31T15:09:05.630Z,12.90
2023-12-31T15:11:36.299Z,12.90
2023-12-31T15:14:03.689Z,12.70
2023-12-31T15:16:30.334Z,12.60
2023-12-31T15:18:56.943Z,12.60
2023-12-31T15:21:23.461Z,12.40
2023-12-31T15:23:49.994Z,12.40
2023-12-31T15:26:16.518Z,12.40
2023-12-31T15:28:43.074Z,12.50
2023-12-31T15:31:09.627Z,12.60
2023-12-31T15:33:36.256Z,12.40
2023-12-31T15:36:02.831Z,12.50
2023-12-31T15:38:29.410Z,12.40
2023-12-31T15:40:55.956Z,12.40
2023-12-31T15:43:22.533Z,12.70
2023-12-31T15:45:49.094Z,12.80
2023-12-31T15:48:15.700Z,12.80
2023-12-31T15:50:42.254Z,13.00
2023-12-31T15:53:08.844Z,13.10
2023-12-31T15:55:35.434Z,13.10
2023-12-31T15:58:02.346Z,13.00
2023-12-31T16:00:29.035Z,13.00
2023-12-31T16:02:55.625Z,12.90
2023-12-31T16:05:22.279Z,12.90
2023-12-31T16:07:48.956Z,12.90
2023-12-31T16:10:15.527Z,13.00
2023-12-31T16:12:42.080Z,13.00
2023-12-31T16:15:08.612Z,12.90
2023-12-31T16:17:35.200Z,12.90
2023-12-31T16:20:01.877Z,12.80
2023-12-31T16:22:30.019Z,12.80
2023-12-31T16:24:57.517Z,12.70
2023-12-31T16:27:24.060Z,12.50
2023-12-31T16:29:50.572Z,12.60
2023-12-31T16:32:17.115Z,12.60
2023-12-31T16:34:43.679Z,12.50
2023-12-31T16:37:10.241Z,12.60
2023-12-31T16:39:36.754Z,12.80
2023-12-31T16:42:03.288Z,12.90
2023-12-31T16:44:29.944Z,12.90
2023-12-31T16:46:56.531Z,12.90
2023-12-31T16:49:23.105Z,12.80
2023-12-31T16:51:49.701Z,12.90
2023-12-31T16:54:16.198Z,12.80
2023-12-31T16:56:42.726Z,12.80
2023-12-31T16:59:09.275Z,12.80
2023-12-31T17:01:35.826Z,12.80
2023-12-31T17:04:02.370Z,12.90
2023-12-31T17:06:28.963Z,12.90
2023-12-31T17:08:55.478Z,13.00
2023-12-31T17:11:22.007Z,13.00
2023-12-31T17:13:48.603Z,12.90
2023-12-31T17:16:15.154Z,12.90
2023-12-31T17:18:41.814Z,13.00
2023-12-31T17:21:08.400Z,12.80
2023-12-31T17:23:34.937Z,12.90
2023-12-31T17:26:01.591Z,12.90
2023-12-31T17:28:28.171Z,13.00
2023-12-31T17:30:54.751Z,13.10
2023-12-31T17:33:21.494Z,13.00
2023-12-31T17:35:48.706Z,12.70
2023-12-31T17:38:15.367Z,12.70
2023-12-31T17:40:42.013Z,12.90
2023-12-31T17:43:08.561Z,12.80
2023-12-31T17:45:35.084Z,12.70
2023-12-31T17:48:01.807Z,12.70
2023-12-31T17:50:28.509Z,12.80
2023-12-31T17:52:55.153Z,12.90
2023-12-31T17:55:21.678Z,12.80
2023-12-31T17:57:48.214Z,12.70
2023-12-31T18:00:14.737Z,12.80
2023-12-31T18:02:41.296Z,12.80
2023-12-31T18:05:07.926Z,12.80
2023-12-31T18:07:34.537Z,12.80
2023-12-31T18:10:01.182Z,12.60
2023-12-31T18:12:27.967Z,12.60
2023-12-31T18:14:54.465Z,12.60
2023-12-31T18:17:20.991Z,12.50
2023-12-31T18:19:47.514Z,12.60
2023-12-31T18:22:14.098Z,12.80
2023-12-31T18:24:40.611Z,12.70
2023-12-31T18:27:07.210Z,12.70
2023-12-31T18:29:33.826Z,12.80
2023-12-31T18:32:00.522Z,12.70
2023-12-31T18:34:27.181Z,12.70
2023-12-31T18:36:53.698Z,12.70
2023-12-31T18:39:20.220Z,12.70
2023-12-31T18:41:46.761Z,12.60
2023-12-31T18:44:13.302Z,12.40
2023-12-31T18:46:39.859Z,12.40
2023-12-31T18:49:06.488Z,12.30
2023-12-31T18:51:33.098Z,12.60
2023-12-31T18:53:59.607Z,12.50
2023-12-31T18:56:26.142Z,12.30
2023-12-31T18:58:52.673Z,12.30
2023-12-31T19:01:19.303Z,12.30
2023-12-31T19:03:45.931Z,12.60
2023-12-31T19:06:12.496Z,12.50
2023-12-31T19:08:39.002Z,12.50
2023-12-31T19:11:05.610Z,12.30
2023-12-31T19:13:32.166Z,12.50
2023-12-31T19:15:58.708Z,12.40
2023-12-31T19:18:25.261Z,12.60
2023-12-31T19:20:51.807Z,12.50
2023-12-31T19:23:19.682Z,12.60
2023-12-31T19:25:47.560Z,12.40
2023-12-31T19:28:14.070Z,12.40
2023-12-31T19:30:40.649Z,12.40
2023-12-31T19:33:09.639Z,12.40
2023-12-31T19:35:36.710Z,12.70
2023-12-31T19:38:03.370Z,12.40
2023-12-31T19:40:29.974Z,12.40
2023-12-31T19:43:05.571Z,12.20
2023-12-31T19:45:40.913Z,12.40
2023-12-31T19:48:07.473Z,12.40
2023-12-31T19:50:34.070Z,12.40
2023-12-31T19:53:00.692Z,12.50
2023-12-31T19:55:27.261Z,12.50
2023-12-31T19:57:53.816Z,12.40
2023-12-31T20:00:20.421Z,12.40
2023-12-31T20:02:46.984Z,12.50
2023-12-31T20:05:13.561Z,12.40
2023-12-31T20:07:40.144Z,12.40
2023-12-31T20:10:06.674Z,12.40
2023-12-31T20:12:33.207Z,12.40
2023-12-31T20:14:59.710Z,12.30
2023-12-31T20:17:26.229Z,12.40
2023-12-31T20:19:52.894Z,12.30
2023-12-31T20:22:19.430Z,12.50
2023-12-31T20:24:45.937Z,12.30
2023-12-31T20:27:12.479Z,12.30
2023-12-31T20:29:38.982Z,12.30
2023-12-31T20:32:05.690Z,12.30
2023-12-31T20:34:32.353Z,12.20
2023-12-31T20:36:58.907Z,12.30
2023-12-31T20:39:25.409Z,12.10
2023-12-31T20:41:51.965Z,12.20
2023-12-31T20:44:18.546Z,12.10
2023-12-31T20:46:45.126Z,12.30
2023-12-31T20:49:11.713Z,12.20
2023-12-31T20:51:38.267Z,12.30
2023-12-31T20:54:04.818Z,12.40
2023-12-31T20:56:31.351Z,12.40
2023-12-31T20:58:57.872Z,12.40
2023-12-31T21:01:24.465Z,12.30
2023-12-31T21:03:51.023Z,12.20
2023-12-31T21:06:17.552Z,12.20
2023-12-31T21:08:44.071Z,12.50
2023-12-31T21:11:10.696Z,12.30
2023-12-31T21:13:37.240Z,12.30
2023-12-31T21:16:04.679Z,12.20
2023-12-31T21:18:31.433Z,12.20
2023-12-31T21:20:58.051Z,12.30
2023-12-31T21:23:24.548Z,12.20
2023-12-31T21:25:51.112Z,12.20
2023-12-31T21:28:17.681Z,12.20
2023-12-31T21:30:44.272Z,12.10
2023-12-31T21:33:11.125Z,12.20
2023-12-31T21:35:37.995Z,12.20
2023-12-31T21:38:04.713Z,12.20
2023-12-31T21:40:31.525Z,12.20
2023-12-31T21:42:58.060Z,12.30
2023-12-31T21:45:24.588Z,12.30
2023-12-31T21:47:51.140Z,12.40
2023-12-31T21:50:17.828Z,12.40
2023-12-31T21:52:44.440Z,12.40
2023-12-31T21:55:19.462Z,12.50
2023-12-31T21:57:50.573Z,12.40
2023-12-31T22:00:17.185Z,12.40
2023-12-31T22:02:43.776Z,12.30
2023-12-31T22:05:10.426Z,12.00
2023-12-31T22:07:37.015Z,12.10
2023-12-31T22:10:03.573Z,12.30
2023-12-31T22:12:30.076Z,12.20
2023-12-31T22:14:56.647Z,12.20
2023-12-31T22:17:23.181Z,12.30
2023-12-31T22:19:49.892Z,12.30
2023-12-31T22:22:16.505Z,12.30
2023-12-31T22:24:43.023Z,12.20
2023-12-31T22:27:09.531Z,12.10
2023-12-31T22:29:36.058Z,12.20
2023-12-31T22:32:02.635Z,12.10
2023-12-31T22:34:29.302Z,12.00
2023-12-31T22:36:56.035Z,12.00
2023-12-31T22:39:22.593Z,12.20
2023-12-31T22:41:49.101Z,12.10
2023-12-31T22:44:15.612Z,12.20
2023-12-31T22:46:42.158Z,12.10
2023-12-31T22:49:08.744Z,12.00
2023-12-31T22:51:35.275Z,12.10
2023-12-31T22:54:01.802Z,12.10
2023-12-31T22:56:28.331Z,12.00
2023-12-31T22:58:54.883Z,11.80
2023-12-31T23:01:21.702Z,11.80
2023-12-31T23:03:48.243Z,11.90
2023-12-31T23:06:14.762Z,11.90
2023-12-31T23:08:41.307Z,12.00
2023-12-31T23:11:07.932Z,11.90
2023-12-31T23:13:34.568Z,12.00
2023-12-31T23:16:01.104Z,11.90
2023-12-31T23:18:27.697Z,11.80
2023-12-31T23:20:56.198Z,11.90
2023-12-31T23:23:23.300Z,11.80
2023-12-31T23:25:49.847Z,11.80
2023-12-31T23:28:16.398Z,11.90
2023-12-31T23:30:42.969Z,12.00
2023-12-31T23:33:09.609Z,12.20
2023-12-31T23:35:36.191Z,12.00
2023-12-31T23:38:02.960Z,12.00
2023-12-31T23:40:29.746Z,11.90
2023-12-31T23:42:56.402Z,11.80
2023-12-31T23:45:22.905Z,11.70
2023-12-31T23:47:49.563Z,11.70
2023-12-31T23:50:16.290Z,11.80
2023-12-31T23:52:42.867Z,11.80
2023-12-31T23:55:09.403Z,11.90
2023-12-31T23:57:35.950Z,11.80
